sensor_id;sensor_type;location;lat;lon;timestamp;P1;durP1;ratioP1;P2;durP2;ratioP2
15402;SDS011;7799;53.478;10.170;2022-12-16T00:00:50;7.97;;;6.93;;
15402;SDS011;7799;53.478;10.170;2022-12-16T00:03:16;11.37;;;10.23;;
15402;SDS011;7799;53.478;10.170;2022-12-16T00:05:43;12.83;;;10.90;;
15402;SDS011;7799;53.478;10.170;2022-12-16T00:08:10;15.63;;;12.13;;
15402;SDS011;7799;53.478;10.170;2022-12-16T00:10:36;13.50;;;12.10;;
15402;SDS011;7799;53.478;10.170;2022-12-16T00:13:31;12.17;;;10.87;;
15402;SDS011;7799;53.478;10.170;2022-12-16T00:15:58;15.83;;;13.00;;
15402;SDS011;7799;53.478;10.170;2022-12-16T00:18:25;18.43;;;14.90;;
15402;SDS011;7799;53.478;10.170;2022-12-16T00:20:52;18.90;;;15.67;;
15402;SDS011;7799;53.478;10.170;2022-12-16T00:23:19;16.77;;;13.23;;
15402;SDS011;7799;53.478;10.170;2022-12-16T00:25:46;13.57;;;11.60;;
15402;SDS011;7799;53.478;10.170;2022-12-16T00:28:13;13.40;;;12.00;;
15402;SDS011;7799;53.478;10.170;2022-12-16T00:30:43;15.23;;;11.63;;
15402;SDS011;7799;53.478;10.170;2022-12-16T00:33:10;13.60;;;11.90;;
15402;SDS011;7799;53.478;10.170;2022-12-16T00:35:39;13.17;;;11.17;;
15402;SDS011;7799;53.478;10.170;2022-12-16T00:38:06;12.03;;;10.73;;
15402;SDS011;7799;53.478;10.170;2022-12-16T00:40:33;16.17;;;13.10;;
15402;SDS011;7799;53.478;10.170;2022-12-16T00:43:00;13.10;;;11.57;;
15402;SDS011;7799;53.478;10.170;2022-12-16T00:45:28;11.67;;;10.13;;
15402;SDS011;7799;53.478;10.170;2022-12-16T00:47:57;14.60;;;11.93;;
15402;SDS011;7799;53.478;10.170;2022-12-16T00:50:24;13.53;;;10.77;;
15402;SDS011;7799;53.478;10.170;2022-12-16T00:52:50;10.60;;;9.30;;
15402;SDS011;7799;53.478;10.170;2022-12-16T00:55:17;9.50;;;8.30;;
15402;SDS011;7799;53.478;10.170;2022-12-16T00:57:44;12.93;;;11.53;;
15402;SDS011;7799;53.478;10.170;2022-12-16T01:00:12;13.73;;;10.87;;
15402;SDS011;7799;53.478;10.170;2022-12-16T01:02:40;13.73;;;11.63;;
15402;SDS011;7799;53.478;10.170;2022-12-16T01:05:10;10.27;;;9.23;;
15402;SDS011;7799;53.478;10.170;2022-12-16T01:07:38;13.30;;;11.00;;
15402;SDS011;7799;53.478;10.170;2022-12-16T01:10:05;12.90;;;11.00;;
15402;SDS011;7799;53.478;10.170;2022-12-16T01:12:33;18.53;;;14.30;;
15402;SDS011;7799;53.478;10.170;2022-12-16T01:15:00;12.70;;;10.53;;
15402;SDS011;7799;53.478;10.170;2022-12-16T01:17:27;10.53;;;9.20;;
15402;SDS011;7799;53.478;10.170;2022-12-16T01:19:53;11.03;;;9.60;;
15402;SDS011;7799;53.478;10.170;2022-12-16T01:22:21;12.10;;;10.90;;
15402;SDS011;7799;53.478;10.170;2022-12-16T01:24:48;14.80;;;11.43;;
15402;SDS011;7799;53.478;10.170;2022-12-16T01:27:15;12.83;;;10.50;;
15402;SDS011;7799;53.478;10.170;2022-12-16T01:29:42;16.20;;;13.17;;
15402;SDS011;7799;53.478;10.170;2022-12-16T01:32:09;19.23;;;14.40;;
15402;SDS011;7799;53.478;10.170;2022-12-16T01:34:37;13.77;;;11.53;;
15402;SDS011;7799;53.478;10.170;2022-12-16T01:37:04;13.83;;;11.10;;
15402;SDS011;7799;53.478;10.170;2022-12-16T01:39:32;12.87;;;10.37;;
15402;SDS011;7799;53.478;10.170;2022-12-16T01:41:59;15.20;;;11.77;;
15402;SDS011;7799;53.478;10.170;2022-12-16T01:44:26;10.93;;;9.30;;
15402;SDS011;7799;53.478;10.170;2022-12-16T01:46:54;10.67;;;9.50;;
15402;SDS011;7799;53.478;10.170;2022-12-16T01:49:23;11.67;;;9.90;;
15402;SDS011;7799;53.478;10.170;2022-12-16T01:51:52;13.93;;;11.73;;
15402;SDS011;7799;53.478;10.170;2022-12-16T01:54:23;14.37;;;11.97;;
15402;SDS011;7799;53.478;10.170;2022-12-16T01:56:54;11.50;;;10.10;;
15402;SDS011;7799;53.478;10.170;2022-12-16T01:59:22;9.10;;;8.20;;
15402;SDS011;7799;53.478;10.170;2022-12-16T02:01:50;9.87;;;8.00;;
15402;SDS011;7799;53.478;10.170;2022-12-16T02:04:17;9.27;;;7.90;;
15402;SDS011;7799;53.478;10.170;2022-12-16T02:06:44;10.50;;;9.20;;
15402;SDS011;7799;53.478;10.170;2022-12-16T02:09:10;12.43;;;9.73;;
15402;SDS011;7799;53.478;10.170;2022-12-16T02:11:47;12.60;;;10.50;;
15402;SDS011;7799;53.478;10.170;2022-12-16T02:14:39;12.47;;;10.63;;
15402;SDS011;7799;53.478;10.170;2022-12-16T02:17:16;11.97;;;8.83;;
15402;SDS011;7799;53.478;10.170;2022-12-16T02:19:51;15.47;;;13.67;;
15402;SDS011;7799;53.478;10.170;2022-12-16T02:22:34;13.90;;;12.50;;
15402;SDS011;7799;53.478;10.170;2022-12-16T02:25:13;15.27;;;12.37;;
15402;SDS011;7799;53.478;10.170;2022-12-16T02:28:03;14.40;;;12.63;;
15402;SDS011;7799;53.478;10.170;2022-12-16T02:30:46;13.10;;;10.87;;
15402;SDS011;7799;53.478;10.170;2022-12-16T02:33:24;12.70;;;11.40;;
15402;SDS011;7799;53.478;10.170;2022-12-16T02:36:07;9.70;;;8.70;;
15402;SDS011;7799;53.478;10.170;2022-12-16T02:38:38;10.53;;;9.20;;
15402;SDS011;7799;53.478;10.170;2022-12-16T02:41:10;12.67;;;10.33;;
15402;SDS011;7799;53.478;10.170;2022-12-16T02:43:46;17.10;;;13.40;;
15402;SDS011;7799;53.478;10.170;2022-12-16T02:46:17;17.53;;;12.40;;
15402;SDS011;7799;53.478;10.170;2022-12-16T02:48:44;13.37;;;11.83;;
15402;SDS011;7799;53.478;10.170;2022-12-16T02:51:11;16.33;;;12.87;;
15402;SDS011;7799;53.478;10.170;2022-12-16T02:53:38;16.73;;;12.53;;
15402;SDS011;7799;53.478;10.170;2022-12-16T02:56:09;13.90;;;12.23;;
15402;SDS011;7799;53.478;10.170;2022-12-16T02:58:44;15.80;;;13.37;;
15402;SDS011;7799;53.478;10.170;2022-12-16T03:01:14;14.33;;;12.33;;
15402;SDS011;7799;53.478;10.170;2022-12-16T03:03:45;17.17;;;12.43;;
15402;SDS011;7799;53.478;10.170;2022-12-16T03:06:15;18.33;;;14.67;;
15402;SDS011;7799;53.478;10.170;2022-12-16T03:08:44;14.57;;;12.20;;
15402;SDS011;7799;53.478;10.170;2022-12-16T03:11:15;14.97;;;12.37;;
15402;SDS011;7799;53.478;10.170;2022-12-16T03:13:42;13.87;;;12.40;;
15402;SDS011;7799;53.478;10.170;2022-12-16T03:16:12;16.97;;;14.63;;
15402;SDS011;7799;53.478;10.170;2022-12-16T03:18:42;15.33;;;13.70;;
15402;SDS011;7799;53.478;10.170;2022-12-16T03:21:09;15.37;;;12.43;;
15402;SDS011;7799;53.478;10.170;2022-12-16T03:23:39;14.13;;;11.63;;
15402;SDS011;7799;53.478;10.170;2022-12-16T03:26:11;15.17;;;12.17;;
15402;SDS011;7799;53.478;10.170;2022-12-16T03:28:41;12.80;;;11.23;;
15402;SDS011;7799;53.478;10.170;2022-12-16T03:31:12;14.90;;;12.03;;
15402;SDS011;7799;53.478;10.170;2022-12-16T03:33:46;14.47;;;11.27;;
15402;SDS011;7799;53.478;10.170;2022-12-16T03:36:14;14.77;;;12.30;;
15402;SDS011;7799;53.478;10.170;2022-12-16T03:38:42;15.37;;;13.27;;
15402;SDS011;7799;53.478;10.170;2022-12-16T03:41:10;20.67;;;16.47;;
15402;SDS011;7799;53.478;10.170;2022-12-16T03:43:37;16.23;;;13.90;;
15402;SDS011;7799;53.478;10.170;2022-12-16T03:46:05;16.47;;;12.33;;
15402;SDS011;7799;53.478;10.170;2022-12-16T03:48:32;13.93;;;11.17;;
15402;SDS011;7799;53.478;10.170;2022-12-16T03:51:00;10.20;;;9.00;;
15402;SDS011;7799;53.478;10.170;2022-12-16T03:53:27;9.80;;;7.93;;
15402;SDS011;7799;53.478;10.170;2022-12-16T03:55:54;10.00;;;8.87;;
15402;SDS011;7799;53.478;10.170;2022-12-16T03:58:23;9.77;;;8.10;;
15402;SDS011;7799;53.478;10.170;2022-12-16T04:00:50;8.20;;;7.37;;
15402;SDS011;7799;53.478;10.170;2022-12-16T04:03:17;8.17;;;6.70;;
15402;SDS011;7799;53.478;10.170;2022-12-16T04:05:46;6.03;;;5.40;;
15402;SDS011;7799;53.478;10.170;2022-12-16T04:08:14;9.47;;;7.43;;
15402;SDS011;7799;53.478;10.170;2022-12-16T04:10:41;7.73;;;6.17;;
15402;SDS011;7799;53.478;10.170;2022-12-16T04:13:25;6.17;;;5.27;;
15402;SDS011;7799;53.478;10.170;2022-12-16T04:16:10;6.87;;;5.33;;
15402;SDS011;7799;53.478;10.170;2022-12-16T04:18:57;7.47;;;6.43;;
15402;SDS011;7799;53.478;10.170;2022-12-16T04:21:42;6.43;;;5.73;;
15402;SDS011;7799;53.478;10.170;2022-12-16T04:24:38;6.17;;;5.20;;
15402;SDS011;7799;53.478;10.170;2022-12-16T04:27:05;5.07;;;4.53;;
15402;SDS011;7799;53.478;10.170;2022-12-16T04:29:50;4.90;;;4.23;;
15402;SDS011;7799;53.478;10.170;2022-12-16T04:32:34;6.80;;;6.10;;
15402;SDS011;7799;53.478;10.170;2022-12-16T04:35:14;5.50;;;4.67;;
15402;SDS011;7799;53.478;10.170;2022-12-16T04:37:59;6.40;;;4.60;;
15402;SDS011;7799;53.478;10.170;2022-12-16T04:40:44;5.10;;;4.60;;
15402;SDS011;7799;53.478;10.170;2022-12-16T04:43:28;5.17;;;4.00;;
15402;SDS011;7799;53.478;10.170;2022-12-16T04:46:12;5.07;;;4.17;;
15402;SDS011;7799;53.478;10.170;2022-12-16T04:48:56;5.10;;;3.93;;
15402;SDS011;7799;53.478;10.170;2022-12-16T04:51:40;4.33;;;3.93;;
15402;SDS011;7799;53.478;10.170;2022-12-16T04:54:24;3.67;;;3.17;;
15402;SDS011;7799;53.478;10.170;2022-12-16T04:57:10;5.00;;;3.90;;
15402;SDS011;7799;53.478;10.170;2022-12-16T04:59:53;3.93;;;3.53;;
15402;SDS011;7799;53.478;10.170;2022-12-16T05:02:38;4.47;;;3.13;;
15402;SDS011;7799;53.478;10.170;2022-12-16T05:05:22;4.03;;;3.63;;
15402;SDS011;7799;53.478;10.170;2022-12-16T05:08:02;3.10;;;2.80;;
15402;SDS011;7799;53.478;10.170;2022-12-16T05:10:47;3.47;;;3.00;;
15402;SDS011;7799;53.478;10.170;2022-12-16T05:13:32;3.20;;;2.90;;
15402;SDS011;7799;53.478;10.170;2022-12-16T05:16:16;3.33;;;3.03;;
15402;SDS011;7799;53.478;10.170;2022-12-16T05:19:00;3.23;;;2.87;;
15402;SDS011;7799;53.478;10.170;2022-12-16T05:21:44;3.63;;;3.20;;
15402;SDS011;7799;53.478;10.170;2022-12-16T05:24:28;3.53;;;3.17;;
15402;SDS011;7799;53.478;10.170;2022-12-16T05:27:12;3.57;;;2.93;;
15402;SDS011;7799;53.478;10.170;2022-12-16T05:29:57;5.40;;;3.67;;
15402;SDS011;7799;53.478;10.170;2022-12-16T05:32:41;4.10;;;3.33;;
15402;SDS011;7799;53.478;10.170;2022-12-16T05:35:26;4.50;;;3.93;;
15402;SDS011;7799;53.478;10.170;2022-12-16T05:38:18;4.93;;;4.00;;
15402;SDS011;7799;53.478;10.170;2022-12-16T05:41:03;7.77;;;5.17;;
15402;SDS011;7799;53.478;10.170;2022-12-16T05:43:46;6.80;;;5.30;;
15402;SDS011;7799;53.478;10.170;2022-12-16T05:46:32;5.87;;;5.10;;
15402;SDS011;7799;53.478;10.170;2022-12-16T05:49:16;5.30;;;4.57;;
15402;SDS011;7799;53.478;10.170;2022-12-16T05:52:03;5.67;;;4.73;;
15402;SDS011;7799;53.478;10.170;2022-12-16T05:54:47;5.00;;;3.83;;
15402;SDS011;7799;53.478;10.170;2022-12-16T05:57:31;5.73;;;4.73;;
15402;SDS011;7799;53.478;10.170;2022-12-16T06:00:15;5.80;;;5.10;;
15402;SDS011;7799;53.478;10.170;2022-12-16T06:03:01;6.47;;;5.60;;
15402;SDS011;7799;53.478;10.170;2022-12-16T06:05:45;8.13;;;6.20;;
15402;SDS011;7799;53.478;10.170;2022-12-16T06:08:29;7.23;;;6.13;;
15402;SDS011;7799;53.478;10.170;2022-12-16T06:11:13;5.87;;;5.07;;
15402;SDS011;7799;53.478;10.170;2022-12-16T06:13:57;5.03;;;4.53;;
15402;SDS011;7799;53.478;10.170;2022-12-16T06:16:41;5.03;;;4.53;;
15402;SDS011;7799;53.478;10.170;2022-12-16T06:19:27;4.63;;;4.23;;
15402;SDS011;7799;53.478;10.170;2022-12-16T06:22:11;5.43;;;4.23;;
15402;SDS011;7799;53.478;10.170;2022-12-16T06:24:55;4.33;;;3.93;;
15402;SDS011;7799;53.478;10.170;2022-12-16T06:27:39;4.30;;;3.77;;
15402;SDS011;7799;53.478;10.170;2022-12-16T06:30:23;4.63;;;3.83;;
15402;SDS011;7799;53.478;10.170;2022-12-16T06:33:07;4.47;;;3.67;;
15402;SDS011;7799;53.478;10.170;2022-12-16T06:35:52;4.30;;;3.37;;
15402;SDS011;7799;53.478;10.170;2022-12-16T06:38:37;3.63;;;2.53;;
15402;SDS011;7799;53.478;10.170;2022-12-16T06:41:21;3.90;;;3.33;;
15402;SDS011;7799;53.478;10.170;2022-12-16T06:44:05;3.90;;;3.50;;
15402;SDS011;7799;53.478;10.170;2022-12-16T06:46:49;4.63;;;3.57;;
15402;SDS011;7799;53.478;10.170;2022-12-16T06:49:33;4.83;;;3.70;;
15402;SDS011;7799;53.478;10.170;2022-12-16T06:52:18;4.90;;;3.27;;
15402;SDS011;7799;53.478;10.170;2022-12-16T06:55:03;3.63;;;3.10;;
15402;SDS011;7799;53.478;10.170;2022-12-16T06:57:47;5.20;;;3.10;;
15402;SDS011;7799;53.478;10.170;2022-12-16T07:00:31;4.97;;;3.30;;
15402;SDS011;7799;53.478;10.170;2022-12-16T07:03:15;3.87;;;3.50;;
15402;SDS011;7799;53.478;10.170;2022-12-16T07:05:59;5.00;;;4.50;;
15402;SDS011;7799;53.478;10.170;2022-12-16T07:08:45;6.53;;;4.60;;
15402;SDS011;7799;53.478;10.170;2022-12-16T07:11:29;5.03;;;3.73;;
15402;SDS011;7799;53.478;10.170;2022-12-16T07:14:13;4.43;;;3.93;;
15402;SDS011;7799;53.478;10.170;2022-12-16T07:16:57;5.73;;;3.23;;
15402;SDS011;7799;53.478;10.170;2022-12-16T07:19:47;4.30;;;3.20;;
15402;SDS011;7799;53.478;10.170;2022-12-16T07:22:31;4.30;;;2.90;;
15402;SDS011;7799;53.478;10.170;2022-12-16T07:25:16;3.47;;;2.97;;
15402;SDS011;7799;53.478;10.170;2022-12-16T07:28:00;3.90;;;2.80;;
15402;SDS011;7799;53.478;10.170;2022-12-16T07:30:44;3.30;;;2.87;;
15402;SDS011;7799;53.478;10.170;2022-12-16T07:33:28;3.33;;;2.70;;
15402;SDS011;7799;53.478;10.170;2022-12-16T07:36:12;2.83;;;2.60;;
15402;SDS011;7799;53.478;10.170;2022-12-16T07:38:56;3.13;;;2.63;;
15402;SDS011;7799;53.478;10.170;2022-12-16T07:41:42;6.40;;;4.50;;
15402;SDS011;7799;53.478;10.170;2022-12-16T07:44:26;5.93;;;4.40;;
15402;SDS011;7799;53.478;10.170;2022-12-16T07:47:11;5.17;;;4.07;;
15402;SDS011;7799;53.478;10.170;2022-12-16T07:49:55;5.77;;;4.70;;
15402;SDS011;7799;53.478;10.170;2022-12-16T07:52:39;4.77;;;4.23;;
15402;SDS011;7799;53.478;10.170;2022-12-16T07:55:22;5.33;;;4.50;;
15402;SDS011;7799;53.478;10.170;2022-12-16T07:58:10;3.73;;;3.43;;
15402;SDS011;7799;53.478;10.170;2022-12-16T08:00:54;5.97;;;4.80;;
15402;SDS011;7799;53.478;10.170;2022-12-16T08:03:38;6.20;;;4.90;;
15402;SDS011;7799;53.478;10.170;2022-12-16T08:06:22;4.83;;;4.17;;
15402;SDS011;7799;53.478;10.170;2022-12-16T08:09:06;4.20;;;3.60;;
15402;SDS011;7799;53.478;10.170;2022-12-16T08:11:50;5.17;;;3.80;;
15402;SDS011;7799;53.478;10.170;2022-12-16T08:14:36;4.93;;;3.90;;
15402;SDS011;7799;53.478;10.170;2022-12-16T08:17:20;5.10;;;3.70;;
15402;SDS011;7799;53.478;10.170;2022-12-16T08:20:04;3.83;;;3.47;;
15402;SDS011;7799;53.478;10.170;2022-12-16T08:22:49;5.00;;;3.93;;
15402;SDS011;7799;53.478;10.170;2022-12-16T08:25:33;6.17;;;5.10;;
15402;SDS011;7799;53.478;10.170;2022-12-16T08:28:17;7.43;;;5.63;;
15402;SDS011;7799;53.478;10.170;2022-12-16T08:31:03;10.23;;;7.53;;
15402;SDS011;7799;53.478;10.170;2022-12-16T08:33:47;7.90;;;6.10;;
15402;SDS011;7799;53.478;10.170;2022-12-16T08:36:31;6.70;;;6.00;;
15402;SDS011;7799;53.478;10.170;2022-12-16T08:39:15;6.63;;;5.27;;
15402;SDS011;7799;53.478;10.170;2022-12-16T08:41:59;10.20;;;8.50;;
15402;SDS011;7799;53.478;10.170;2022-12-16T08:44:44;9.23;;;7.37;;
15402;SDS011;7799;53.478;10.170;2022-12-16T08:47:29;9.87;;;7.53;;
15402;SDS011;7799;53.478;10.170;2022-12-16T08:50:14;10.03;;;8.30;;
15402;SDS011;7799;53.478;10.170;2022-12-16T08:52:57;9.93;;;7.93;;
15402;SDS011;7799;53.478;10.170;2022-12-16T08:55:41;7.00;;;6.30;;
15402;SDS011;7799;53.478;10.170;2022-12-16T08:58:25;9.67;;;7.43;;
15402;SDS011;7799;53.478;10.170;2022-12-16T09:01:09;12.20;;;9.20;;
15402;SDS011;7799;53.478;10.170;2022-12-16T09:03:55;9.87;;;7.47;;
15402;SDS011;7799;53.478;10.170;2022-12-16T09:06:38;7.83;;;7.03;;
15402;SDS011;7799;53.478;10.170;2022-12-16T09:09:23;10.73;;;8.07;;
15402;SDS011;7799;53.478;10.170;2022-12-16T09:12:07;10.83;;;8.17;;
15402;SDS011;7799;53.478;10.170;2022-12-16T09:14:51;13.47;;;9.77;;
15402;SDS011;7799;53.478;10.170;2022-12-16T09:17:34;13.43;;;11.17;;
15402;SDS011;7799;53.478;10.170;2022-12-16T09:20:19;12.77;;;9.93;;
15402;SDS011;7799;53.478;10.170;2022-12-16T09:23:03;10.97;;;8.50;;
15402;SDS011;7799;53.478;10.170;2022-12-16T09:25:48;11.33;;;9.00;;
15402;SDS011;7799;53.478;10.170;2022-12-16T09:28:32;9.60;;;8.10;;
15402;SDS011;7799;53.478;10.170;2022-12-16T09:31:16;7.83;;;7.03;;
15402;SDS011;7799;53.478;10.170;2022-12-16T09:34:00;8.27;;;6.80;;
15402;SDS011;7799;53.478;10.170;2022-12-16T09:36:45;7.23;;;6.07;;
15402;SDS011;7799;53.478;10.170;2022-12-16T09:39:29;7.63;;;6.83;;
15402;SDS011;7799;53.478;10.170;2022-12-16T09:42:19;7.23;;;6.13;;
15402;SDS011;7799;53.478;10.170;2022-12-16T09:45:13;6.03;;;5.43;;
15402;SDS011;7799;53.478;10.170;2022-12-16T09:48:03;5.73;;;5.13;;
15402;SDS011;7799;53.478;10.170;2022-12-16T09:50:50;6.13;;;5.53;;
15402;SDS011;7799;53.478;10.170;2022-12-16T09:53:37;5.57;;;4.70;;
15402;SDS011;7799;53.478;10.170;2022-12-16T09:56:24;5.80;;;5.03;;
15402;SDS011;7799;53.478;10.170;2022-12-16T09:59:12;6.00;;;5.40;;
15402;SDS011;7799;53.478;10.170;2022-12-16T10:01:58;7.23;;;6.50;;
15402;SDS011;7799;53.478;10.170;2022-12-16T10:04:42;7.90;;;6.50;;
15402;SDS011;7799;53.478;10.170;2022-12-16T10:07:27;10.93;;;9.33;;
15402;SDS011;7799;53.478;10.170;2022-12-16T10:10:18;7.80;;;7.00;;
15402;SDS011;7799;53.478;10.170;2022-12-16T10:13:08;8.40;;;6.80;;
15402;SDS011;7799;53.478;10.170;2022-12-16T10:15:58;8.37;;;7.50;;
15402;SDS011;7799;53.478;10.170;2022-12-16T10:18:49;10.23;;;8.10;;
15402;SDS011;7799;53.478;10.170;2022-12-16T10:21:38;9.50;;;7.23;;
15402;SDS011;7799;53.478;10.170;2022-12-16T10:24:30;8.03;;;7.20;;
15402;SDS011;7799;53.478;10.170;2022-12-16T10:27:20;9.63;;;7.83;;
15402;SDS011;7799;53.478;10.170;2022-12-16T10:30:10;7.10;;;6.17;;
15402;SDS011;7799;53.478;10.170;2022-12-16T10:32:55;5.90;;;5.30;;
15402;SDS011;7799;53.478;10.170;2022-12-16T10:35:40;9.10;;;6.53;;
15402;SDS011;7799;53.478;10.170;2022-12-16T10:38:28;11.37;;;10.17;;
15402;SDS011;7799;53.478;10.170;2022-12-16T10:41:19;10.97;;;8.70;;
15402;SDS011;7799;53.478;10.170;2022-12-16T10:44:15;8.43;;;7.50;;
15402;SDS011;7799;53.478;10.170;2022-12-16T10:47:05;8.87;;;6.97;;
15402;SDS011;7799;53.478;10.170;2022-12-16T10:49:50;13.57;;;11.40;;
15402;SDS011;7799;53.478;10.170;2022-12-16T10:52:42;13.73;;;11.70;;
15402;SDS011;7799;53.478;10.170;2022-12-16T10:55:30;15.30;;;12.83;;
15402;SDS011;7799;53.478;10.170;2022-12-16T10:58:22;17.80;;;15.07;;
15402;SDS011;7799;53.478;10.170;2022-12-16T11:04:28;13.90;;;12.47;;
15402;SDS011;7799;53.478;10.170;2022-12-16T11:07:26;14.60;;;12.10;;
15402;SDS011;7799;53.478;10.170;2022-12-16T11:10:22;17.27;;;12.97;;
15402;SDS011;7799;53.478;10.170;2022-12-16T11:13:11;15.90;;;12.87;;
15402;SDS011;7799;53.478;10.170;2022-12-16T11:16:04;15.67;;;13.87;;
15402;SDS011;7799;53.478;10.170;2022-12-16T11:18:50;15.03;;;12.93;;
15402;SDS011;7799;53.478;10.170;2022-12-16T11:21:35;15.97;;;13.00;;
15402;SDS011;7799;53.478;10.170;2022-12-16T11:24:19;14.33;;;11.33;;
15402;SDS011;7799;53.478;10.170;2022-12-16T11:27:05;12.07;;;10.53;;
15402;SDS011;7799;53.478;10.170;2022-12-16T11:29:53;10.63;;;9.57;;
15402;SDS011;7799;53.478;10.170;2022-12-16T11:32:38;10.30;;;9.20;;
15402;SDS011;7799;53.478;10.170;2022-12-16T11:35:28;14.23;;;11.33;;
15402;SDS011;7799;53.478;10.170;2022-12-16T11:38:16;10.20;;;8.57;;
15402;SDS011;7799;53.478;10.170;2022-12-16T11:41:04;8.40;;;7.60;;
15402;SDS011;7799;53.478;10.170;2022-12-16T11:43:49;8.37;;;6.83;;
15402;SDS011;7799;53.478;10.170;2022-12-16T11:46:35;6.57;;;5.80;;
15402;SDS011;7799;53.478;10.170;2022-12-16T11:49:21;5.90;;;5.13;;
15402;SDS011;7799;53.478;10.170;2022-12-16T11:52:10;6.33;;;5.50;;
15402;SDS011;7799;53.478;10.170;2022-12-16T11:54:57;6.27;;;5.67;;
15402;SDS011;7799;53.478;10.170;2022-12-16T11:57:46;7.13;;;6.43;;
15402;SDS011;7799;53.478;10.170;2022-12-16T12:00:33;9.90;;;8.90;;
15402;SDS011;7799;53.478;10.170;2022-12-16T12:03:19;9.70;;;8.67;;
15402;SDS011;7799;53.478;10.170;2022-12-16T12:06:07;9.83;;;8.40;;
15402;SDS011;7799;53.478;10.170;2022-12-16T12:08:59;9.97;;;7.83;;
15402;SDS011;7799;53.478;10.170;2022-12-16T12:11:47;10.73;;;9.27;;
15402;SDS011;7799;53.478;10.170;2022-12-16T12:14:36;11.07;;;9.90;;
15402;SDS011;7799;53.478;10.170;2022-12-16T12:17:24;9.13;;;7.93;;
15402;SDS011;7799;53.478;10.170;2022-12-16T12:23:28;9.80;;;8.80;;
15402;SDS011;7799;53.478;10.170;2022-12-16T12:26:20;10.70;;;9.30;;
15402;SDS011;7799;53.478;10.170;2022-12-16T12:29:10;12.23;;;9.60;;
15402;SDS011;7799;53.478;10.170;2022-12-16T12:32:02;9.20;;;7.73;;
15402;SDS011;7799;53.478;10.170;2022-12-16T12:34:53;8.67;;;7.73;;
15402;SDS011;7799;53.478;10.170;2022-12-16T12:37:41;8.57;;;7.67;;
15402;SDS011;7799;53.478;10.170;2022-12-16T12:40:32;8.47;;;7.47;;
15402;SDS011;7799;53.478;10.170;2022-12-16T12:43:33;12.23;;;10.47;;
15402;SDS011;7799;53.478;10.170;2022-12-16T12:46:27;10.13;;;9.13;;
15402;SDS011;7799;53.478;10.170;2022-12-16T12:49:18;8.70;;;7.57;;
15402;SDS011;7799;53.478;10.170;2022-12-16T12:52:10;9.10;;;7.87;;
15402;SDS011;7799;53.478;10.170;2022-12-16T12:55:03;7.90;;;6.50;;
15402;SDS011;7799;53.478;10.170;2022-12-16T12:57:51;7.53;;;6.73;;
15402;SDS011;7799;53.478;10.170;2022-12-16T13:00:39;8.13;;;7.33;;
15402;SDS011;7799;53.478;10.170;2022-12-16T13:03:27;7.50;;;6.67;;
15402;SDS011;7799;53.478;10.170;2022-12-16T13:06:15;7.47;;;6.67;;
15402;SDS011;7799;53.478;10.170;2022-12-16T13:09:00;7.17;;;6.47;;
15402;SDS011;7799;53.478;10.170;2022-12-16T13:15:02;8.73;;;6.87;;
15402;SDS011;7799;53.478;10.170;2022-12-16T13:24:28;7.70;;;6.50;;
15402;SDS011;7799;53.478;10.170;2022-12-16T13:27:18;6.80;;;6.10;;
15402;SDS011;7799;53.478;10.170;2022-12-16T13:30:03;7.97;;;7.17;;
15402;SDS011;7799;53.478;10.170;2022-12-16T13:33:00;7.57;;;6.70;;
15402;SDS011;7799;53.478;10.170;2022-12-16T13:35:52;7.37;;;6.67;;
15402;SDS011;7799;53.478;10.170;2022-12-16T13:38:43;6.93;;;6.33;;
15402;SDS011;7799;53.478;10.170;2022-12-16T13:41:49;7.77;;;6.27;;
15402;SDS011;7799;53.478;10.170;2022-12-16T13:44:55;7.57;;;6.50;;
15402;SDS011;7799;53.478;10.170;2022-12-16T13:50:45;8.23;;;7.40;;
15402;SDS011;7799;53.478;10.170;2022-12-16T13:53:32;7.07;;;6.37;;
15402;SDS011;7799;53.478;10.170;2022-12-16T13:56:17;6.80;;;6.10;;
15402;SDS011;7799;53.478;10.170;2022-12-16T13:59:05;8.20;;;6.43;;
15402;SDS011;7799;53.478;10.170;2022-12-16T14:01:56;6.77;;;6.03;;
15402;SDS011;7799;53.478;10.170;2022-12-16T14:04:46;6.97;;;6.27;;
15402;SDS011;7799;53.478;10.170;2022-12-16T14:07:32;7.20;;;6.10;;
15402;SDS011;7799;53.478;10.170;2022-12-16T14:10:28;7.43;;;6.37;;
15402;SDS011;7799;53.478;10.170;2022-12-16T14:13:15;6.00;;;5.37;;
15402;SDS011;7799;53.478;10.170;2022-12-16T14:16:05;7.50;;;6.70;;
15402;SDS011;7799;53.478;10.170;2022-12-16T14:18:58;6.20;;;5.60;;
15402;SDS011;7799;53.478;10.170;2022-12-16T14:21:50;6.20;;;5.57;;
15402;SDS011;7799;53.478;10.170;2022-12-16T14:24:37;7.57;;;6.70;;
15402;SDS011;7799;53.478;10.170;2022-12-16T14:27:21;8.17;;;7.37;;
15402;SDS011;7799;53.478;10.170;2022-12-16T14:30:13;9.43;;;8.47;;
15402;SDS011;7799;53.478;10.170;2022-12-16T14:33:01;11.57;;;9.07;;
15402;SDS011;7799;53.478;10.170;2022-12-16T14:35:57;16.20;;;13.97;;
15402;SDS011;7799;53.478;10.170;2022-12-16T14:38:45;12.87;;;11.57;;
15402;SDS011;7799;53.478;10.170;2022-12-16T14:41:30;14.13;;;11.40;;
15402;SDS011;7799;53.478;10.170;2022-12-16T14:44:15;14.23;;;12.63;;
15402;SDS011;7799;53.478;10.170;2022-12-16T14:47:00;14.03;;;12.10;;
15402;SDS011;7799;53.478;10.170;2022-12-16T14:49:49;12.43;;;9.80;;
15402;SDS011;7799;53.478;10.170;2022-12-16T14:52:34;10.60;;;8.90;;
15402;SDS011;7799;53.478;10.170;2022-12-16T14:55:18;10.43;;;9.33;;
15402;SDS011;7799;53.478;10.170;2022-12-16T14:58:05;10.67;;;9.37;;
15402;SDS011;7799;53.478;10.170;2022-12-16T15:00:51;10.17;;;9.07;;
15402;SDS011;7799;53.478;10.170;2022-12-16T15:03:36;8.73;;;7.87;;
15402;SDS011;7799;53.478;10.170;2022-12-16T15:06:24;10.07;;;9.07;;
15402;SDS011;7799;53.478;10.170;2022-12-16T15:09:07;9.50;;;7.87;;
15402;SDS011;7799;53.478;10.170;2022-12-16T15:11:57;8.27;;;7.47;;
15402;SDS011;7799;53.478;10.170;2022-12-16T15:14:41;8.33;;;6.73;;
15402;SDS011;7799;53.478;10.170;2022-12-16T15:17:26;8.73;;;7.00;;
15402;SDS011;7799;53.478;10.170;2022-12-16T15:20:14;9.60;;;7.90;;
15402;SDS011;7799;53.478;10.170;2022-12-16T15:23:01;7.53;;;6.63;;
15402;SDS011;7799;53.478;10.170;2022-12-16T15:25:48;9.50;;;7.73;;
15402;SDS011;7799;53.478;10.170;2022-12-16T15:28:37;9.37;;;7.30;;
15402;SDS011;7799;53.478;10.170;2022-12-16T15:31:23;8.83;;;7.10;;
15402;SDS011;7799;53.478;10.170;2022-12-16T15:34:22;7.20;;;6.03;;
15402;SDS011;7799;53.478;10.170;2022-12-16T15:37:14;6.13;;;5.53;;
15402;SDS011;7799;53.478;10.170;2022-12-16T15:40:01;7.70;;;6.17;;
15402;SDS011;7799;53.478;10.170;2022-12-16T15:42:42;6.23;;;5.60;;
15402;SDS011;7799;53.478;10.170;2022-12-16T15:45:26;5.40;;;4.73;;
15402;SDS011;7799;53.478;10.170;2022-12-16T15:48:13;6.00;;;5.40;;
15402;SDS011;7799;53.478;10.170;2022-12-16T15:51:01;6.93;;;5.53;;
15402;SDS011;7799;53.478;10.170;2022-12-16T15:53:45;5.27;;;4.77;;
15402;SDS011;7799;53.478;10.170;2022-12-16T15:56:41;5.53;;;4.93;;
15402;SDS011;7799;53.478;10.170;2022-12-16T15:59:27;5.37;;;4.87;;
15402;SDS011;7799;53.478;10.170;2022-12-16T16:02:13;7.40;;;6.60;;
15402;SDS011;7799;53.478;10.170;2022-12-16T16:04:59;8.00;;;6.00;;
15402;SDS011;7799;53.478;10.170;2022-12-16T16:07:43;6.90;;;5.60;;
15402;SDS011;7799;53.478;10.170;2022-12-16T16:10:27;7.50;;;5.83;;
15402;SDS011;7799;53.478;10.170;2022-12-16T16:13:12;6.43;;;5.50;;
15402;SDS011;7799;53.478;10.170;2022-12-16T16:15:56;5.83;;;5.17;;
15402;SDS011;7799;53.478;10.170;2022-12-16T16:18:41;6.37;;;5.07;;
15402;SDS011;7799;53.478;10.170;2022-12-16T16:21:25;6.23;;;5.10;;
15402;SDS011;7799;53.478;10.170;2022-12-16T16:24:10;5.70;;;4.87;;